sensor_id;sensor_type;location;lat;lon;timestamp;noise_LAeq;noise_LA_min;noise_LA_max;noise_LA01;noise_LA95
66747;Laerm;53658;50.742;10.864;2023-06-26T00:02:25;39.14;35.59;45.48;;
66747;Laerm;53658;50.742;10.864;2023-06-26T00:04:51;39.19;35.94;44.87;;
66747;Laerm;53658;50.742;10.864;2023-06-26T00:07:20;41.68;36.20;70.74;;
66747;Laerm;53658;50.742;10.864;2023-06-26T00:09:46;39.57;36.69;48.77;;
66747;Laerm;53658;50.742;10.864;2023-06-26T00:12:11;39.39;35.36;46.93;;
66747;Laerm;53658;50.742;10.864;2023-06-26T00:14:37;39.30;36.20;42.29;;
66747;Laerm;53658;50.742;10.864;2023-06-26T00:17:03;39.22;36.20;45.14;;
66747;Laerm;53658;50.742;10.864;2023-06-26T00:19:29;39.12;35.66;42.03;;
66747;Laerm;53658;50.742;10.864;2023-06-26T00:21:55;39.09;35.94;45.34;;
66747;Laerm;53658;50.742;10.864;2023-06-26T00:24:21;39.10;36.20;42.82;;
66747;Laerm;53658;50.742;10.864;2023-06-26T00:26:48;39.18;36.20;47.04;;
66747;Laerm;53658;50.742;10.864;2023-06-26T00:29:14;39.15;35.94;44.80;;
66747;Laerm;53658;50.742;10.864;2023-06-26T00:31:39;39.43;35.36;44.07;;
66747;Laerm;53658;50.742;10.864;2023-06-26T00:34:06;41.62;36.91;65.35;;
66747;Laerm;53658;50.742;10.864;2023-06-26T00:36:32;40.71;36.91;61.47;;
66747;Laerm;53658;50.742;10.864;2023-06-26T00:38:59;39.78;36.45;43.90;;
66747;Laerm;53658;50.742;10.864;2023-06-26T00:41:27;39.91;36.69;42.93;;
66747;Laerm;53658;50.742;10.864;2023-06-26T00:43:53;39.73;36.20;43.97;;
66747;Laerm;53658;50.742;10.864;2023-06-26T00:46:19;39.59;35.94;42.71;;
66747;Laerm;53658;50.742;10.864;2023-06-26T00:48:48;52.80;36.69;88.78;;
66747;Laerm;53658;50.742;10.864;2023-06-26T00:51:14;41.94;36.91;49.58;;
66747;Laerm;53658;50.742;10.864;2023-06-26T00:53:42;40.90;36.45;52.02;;
66747;Laerm;53658;50.742;10.864;2023-06-26T00:56:08;41.13;36.20;52.00;;
66747;Laerm;53658;50.742;10.864;2023-06-26T00:58:35;47.34;31.68;82.56;;
66747;Laerm;53658;50.742;10.864;2023-06-26T01:01:01;40.26;36.69;46.38;;
66747;Laerm;53658;50.742;10.864;2023-06-26T01:03:28;39.94;36.91;48.64;;
66747;Laerm;53658;50.742;10.864;2023-06-26T01:05:57;39.90;36.69;47.59;;
66747;Laerm;53658;50.742;10.864;2023-06-26T01:08:25;39.85;36.45;49.90;;
66747;Laerm;53658;50.742;10.864;2023-06-26T01:10:52;39.86;36.69;45.33;;
66747;Laerm;53658;50.742;10.864;2023-06-26T01:13:18;49.44;36.20;85.14;;
66747;Laerm;53658;50.742;10.864;2023-06-26T01:15:46;40.40;36.45;61.94;;
66747;Laerm;53658;50.742;10.864;2023-06-26T01:18:12;40.02;36.69;50.56;;
66747;Laerm;53658;50.742;10.864;2023-06-26T01:20:42;57.95;36.20;94.20;;
66747;Laerm;53658;50.742;10.864;2023-06-26T01:23:24;40.78;36.20;63.69;;
66747;Laerm;53658;50.742;10.864;2023-06-26T01:28:43;40.33;36.69;64.46;;
66747;Laerm;53658;50.742;10.864;2023-06-26T01:31:11;54.50;35.94;88.24;;
66747;Laerm;53658;50.742;10.864;2023-06-26T01:33:38;40.28;36.91;44.73;;
66747;Laerm;53658;50.742;10.864;2023-06-26T01:36:05;42.41;36.20;74.83;;
66747;Laerm;53658;50.742;10.864;2023-06-26T01:38:33;39.83;36.91;48.32;;
66747;Laerm;53658;50.742;10.864;2023-06-26T01:41:00;39.96;36.45;49.15;;
66747;Laerm;53658;50.742;10.864;2023-06-26T01:51:43;43.98;35.36;70.67;;
66747;Laerm;53658;50.742;10.864;2023-06-26T01:54:19;39.70;35.94;45.57;;
66747;Laerm;53658;50.742;10.864;2023-06-26T01:56:50;39.67;36.20;45.72;;
66747;Laerm;53658;50.742;10.864;2023-06-26T01:59:19;39.66;35.94;48.54;;
66747;Laerm;53658;50.742;10.864;2023-06-26T02:01:47;39.72;36.20;45.48;;
66747;Laerm;53658;50.742;10.864;2023-06-26T02:04:13;39.76;35.04;44.31;;
66747;Laerm;53658;50.742;10.864;2023-06-26T02:06:39;39.83;36.69;44.73;;
66747;Laerm;53658;50.742;10.864;2023-06-26T02:09:04;40.85;35.94;58.98;;
66747;Laerm;53658;50.742;10.864;2023-06-26T02:11:30;39.78;35.94;44.39;;
66747;Laerm;53658;50.742;10.864;2023-06-26T02:13:57;39.81;35.66;42.35;;
66747;Laerm;53658;50.742;10.864;2023-06-26T02:16:23;45.84;36.20;80.82;;
66747;Laerm;53658;50.742;10.864;2023-06-26T02:18:49;39.72;35.94;44.83;;
66747;Laerm;53658;50.742;10.864;2023-06-26T02:21:15;39.76;36.10;41.89;;
66747;Laerm;53658;50.742;10.864;2023-06-26T02:23:41;39.78;36.45;51.06;;
66747;Laerm;53658;50.742;10.864;2023-06-26T02:26:07;39.75;36.20;50.84;;
66747;Laerm;53658;50.742;10.864;2023-06-26T02:28:33;40.91;35.66;71.12;;
66747;Laerm;53658;50.742;10.864;2023-06-26T02:31:00;39.56;35.36;45.75;;
66747;Laerm;53658;50.742;10.864;2023-06-26T02:33:26;39.43;35.59;47.74;;
66747;Laerm;53658;50.742;10.864;2023-06-26T02:35:52;39.41;35.66;44.94;;
66747;Laerm;53658;50.742;10.864;2023-06-26T02:38:18;39.43;35.66;47.06;;
66747;Laerm;53658;50.742;10.864;2023-06-26T02:40:46;39.52;35.36;46.78;;
66747;Laerm;53658;50.742;10.864;2023-06-26T02:43:12;39.44;36.45;41.75;;
66747;Laerm;53658;50.742;10.864;2023-06-26T02:45:39;39.43;35.66;41.75;;
66747;Laerm;53658;50.742;10.864;2023-06-26T02:48:05;39.44;35.36;49.63;;
66747;Laerm;53658;50.742;10.864;2023-06-26T02:50:32;39.47;35.66;50.58;;
66747;Laerm;53658;50.742;10.864;2023-06-26T02:53:05;39.44;35.66;41.96;;
66747;Laerm;53658;50.742;10.864;2023-06-26T02:55:33;39.31;35.66;41.61;;
66747;Laerm;53658;50.742;10.864;2023-06-26T02:57:59;39.35;35.66;41.82;;
66747;Laerm;53658;50.742;10.864;2023-06-26T03:00:25;39.38;34.69;50.44;;
66747;Laerm;53658;50.742;10.864;2023-06-26T03:02:53;39.32;35.36;41.53;;
66747;Laerm;53658;50.742;10.864;2023-06-26T03:05:21;39.38;35.66;42.90;;
66747;Laerm;53658;50.742;10.864;2023-06-26T03:07:49;39.34;35.36;42.03;;
66747;Laerm;53658;50.742;10.864;2023-06-26T03:10:15;39.36;35.94;41.68;;
66747;Laerm;53658;50.742;10.864;2023-06-26T03:12:43;42.48;35.04;68.22;;
66747;Laerm;53658;50.742;10.864;2023-06-26T03:15:10;39.34;36.20;45.17;;
66747;Laerm;53658;50.742;10.864;2023-06-26T03:17:37;39.38;35.94;50.02;;
66747;Laerm;53658;50.742;10.864;2023-06-26T03:20:08;39.33;35.36;42.47;;
66747;Laerm;53658;50.742;10.864;2023-06-26T03:22:59;39.26;35.66;45.30;;
66747;Laerm;53658;50.742;10.864;2023-06-26T03:25:25;39.15;35.66;41.38;;
66747;Laerm;53658;50.742;10.864;2023-06-26T03:28:18;39.28;33.90;44.23;;
66747;Laerm;53658;50.742;10.864;2023-06-26T03:30:44;39.29;35.04;42.53;;
66747;Laerm;53658;50.742;10.864;2023-06-26T03:33:10;39.31;35.36;50.85;;
66747;Laerm;53658;50.742;10.864;2023-06-26T03:35:36;39.80;35.94;53.68;;
66747;Laerm;53658;50.742;10.864;2023-06-26T03:38:03;39.96;36.20;43.60;;
66747;Laerm;53658;50.742;10.864;2023-06-26T03:40:29;44.09;32.35;66.65;;
66747;Laerm;53658;50.742;10.864;2023-06-26T03:42:55;39.96;35.66;55.68;;
66747;Laerm;53658;50.742;10.864;2023-06-26T03:45:21;39.89;35.36;53.17;;
66747;Laerm;53658;50.742;10.864;2023-06-26T03:47:48;39.49;34.69;42.88;;
66747;Laerm;53658;50.742;10.864;2023-06-26T03:50:19;39.41;36.20;41.82;;
66747;Laerm;53658;50.742;10.864;2023-06-26T03:52:45;39.37;36.20;50.88;;
66747;Laerm;53658;50.742;10.864;2023-06-26T03:55:12;39.36;34.69;42.03;;
66747;Laerm;53658;50.742;10.864;2023-06-26T03:57:38;39.44;35.36;41.68;;
66747;Laerm;53658;50.742;10.864;2023-06-26T04:00:04;39.38;35.94;41.89;;
66747;Laerm;53658;50.742;10.864;2023-06-26T04:02:40;39.37;35.36;41.68;;
66747;Laerm;53658;50.742;10.864;2023-06-26T04:05:07;39.36;35.94;41.68;;
66747;Laerm;53658;50.742;10.864;2023-06-26T04:07:33;39.46;35.36;41.68;;
66747;Laerm;53658;50.742;10.864;2023-06-26T04:10:01;39.44;34.31;47.50;;
66747;Laerm;53658;50.742;10.864;2023-06-26T04:12:28;39.43;35.66;43.94;;
66747;Laerm;53658;50.742;10.864;2023-06-26T04:14:53;39.45;35.66;41.61;;
66747;Laerm;53658;50.742;10.864;2023-06-26T04:17:19;39.39;35.66;41.89;;
66747;Laerm;53658;50.742;10.864;2023-06-26T04:19:46;39.37;35.94;42.22;;
66747;Laerm;53658;50.742;10.864;2023-06-26T04:22:12;39.36;36.20;42.29;;
66747;Laerm;53658;50.742;10.864;2023-06-26T04:24:37;39.40;35.66;41.75;;
66747;Laerm;53658;50.742;10.864;2023-06-26T04:27:04;39.40;35.66;50.63;;
66747;Laerm;53658;50.742;10.864;2023-06-26T04:29:31;39.64;35.66;43.29;;
66747;Laerm;53658;50.742;10.864;2023-06-26T04:31:57;39.39;35.36;42.82;;
66747;Laerm;53658;50.742;10.864;2023-06-26T04:34:25;39.25;35.66;41.53;;
66747;Laerm;53658;50.742;10.864;2023-06-26T04:36:51;39.18;35.04;41.46;;
66747;Laerm;53658;50.742;10.864;2023-06-26T04:39:17;39.17;35.36;41.46;;
66747;Laerm;53658;50.742;10.864;2023-06-26T04:41:44;39.24;35.66;41.61;;
66747;Laerm;53658;50.742;10.864;2023-06-26T04:44:10;39.29;35.36;42.03;;
66747;Laerm;53658;50.742;10.864;2023-06-26T04:46:37;39.35;35.04;42.53;;
66747;Laerm;53658;50.742;10.864;2023-06-26T04:49:09;39.42;35.66;41.82;;
66747;Laerm;53658;50.742;10.864;2023-06-26T04:51:36;39.29;35.66;41.53;;
66747;Laerm;53658;50.742;10.864;2023-06-26T04:54:10;39.19;34.69;41.38;;
66747;Laerm;53658;50.742;10.864;2023-06-26T04:56:37;39.16;35.66;48.87;;
66747;Laerm;53658;50.742;10.864;2023-06-26T04:59:06;39.17;35.66;47.30;;
66747;Laerm;53658;50.742;10.864;2023-06-26T05:01:32;39.41;35.04;47.14;;
66747;Laerm;53658;50.742;10.864;2023-06-26T05:03:58;40.31;35.36;50.85;;
66747;Laerm;53658;50.742;10.864;2023-06-26T05:06:24;39.66;34.69;52.31;;
66747;Laerm;53658;50.742;10.864;2023-06-26T05:08:50;39.52;34.69;53.64;;
66747;Laerm;53658;50.742;10.864;2023-06-26T05:11:16;39.48;35.66;50.50;;
66747;Laerm;53658;50.742;10.864;2023-06-26T05:13:42;39.35;35.66;52.83;;
66747;Laerm;53658;50.742;10.864;2023-06-26T05:16:09;39.49;35.94;47.79;;
66747;Laerm;53658;50.742;10.864;2023-06-26T05:18:35;39.63;36.69;48.21;;
66747;Laerm;53658;50.742;10.864;2023-06-26T05:21:02;39.38;33.44;48.60;;
66747;Laerm;53658;50.742;10.864;2023-06-26T05:23:31;39.24;36.20;52.64;;
66747;Laerm;53658;50.742;10.864;2023-06-26T05:25:58;39.29;36.45;42.29;;
66747;Laerm;53658;50.742;10.864;2023-06-26T05:28:24;40.12;36.45;57.71;;
66747;Laerm;53658;50.742;10.864;2023-06-26T05:30:52;40.86;37.12;57.95;;
66747;Laerm;53658;50.742;10.864;2023-06-26T05:33:18;42.11;37.32;59.72;;
66747;Laerm;53658;50.742;10.864;2023-06-26T05:35:45;43.76;36.69;58.90;;
66747;Laerm;53658;50.742;10.864;2023-06-26T05:38:12;42.74;37.88;58.24;;
66747;Laerm;53658;50.742;10.864;2023-06-26T05:40:39;42.67;38.67;59.34;;
66747;Laerm;53658;50.742;10.864;2023-06-26T05:43:09;42.13;37.88;55.12;;
66747;Laerm;53658;50.742;10.864;2023-06-26T05:45:35;41.44;38.37;50.61;;
66747;Laerm;53658;50.742;10.864;2023-06-26T05:48:01;41.39;38.81;50.47;;
66747;Laerm;53658;50.742;10.864;2023-06-26T05:50:28;41.00;38.37;54.08;;
66747;Laerm;53658;50.742;10.864;2023-06-26T05:52:54;41.33;38.52;47.74;;
66747;Laerm;53658;50.742;10.864;2023-06-26T05:55:21;40.90;38.52;45.48;;
66747;Laerm;53658;50.742;10.864;2023-06-26T05:57:48;40.41;38.37;45.01;;
66747;Laerm;53658;50.742;10.864;2023-06-26T06:00:15;40.35;37.88;42.88;;
66747;Laerm;53658;50.742;10.864;2023-06-26T06:02:42;40.22;38.21;42.03;;
66747;Laerm;53658;50.742;10.864;2023-06-26T06:05:08;40.23;37.70;41.89;;
66747;Laerm;53658;50.742;10.864;2023-06-26T06:07:35;40.26;37.88;42.22;;
66747;Laerm;53658;50.742;10.864;2023-06-26T06:10:03;40.26;38.05;42.47;;
66747;Laerm;53658;50.742;10.864;2023-06-26T06:12:29;40.34;38.05;42.65;;
66747;Laerm;53658;50.742;10.864;2023-06-26T06:14:56;40.29;37.87;42.09;;
66747;Laerm;53658;50.742;10.864;2023-06-26T06:17:22;40.19;37.88;42.09;;
66747;Laerm;53658;50.742;10.864;2023-06-26T06:19:48;40.56;38.67;44.83;;
66747;Laerm;53658;50.742;10.864;2023-06-26T06:22:14;40.73;38.95;43.94;;
66747;Laerm;53658;50.742;10.864;2023-06-26T06:24:42;40.65;38.67;42.76;;
66747;Laerm;53658;50.742;10.864;2023-06-26T06:27:08;40.34;37.52;42.09;;
66747;Laerm;53658;50.742;10.864;2023-06-26T06:29:33;39.78;36.69;41.89;;
66747;Laerm;53658;50.742;10.864;2023-06-26T06:31:59;39.43;36.20;41.68;;
66747;Laerm;53658;50.742;10.864;2023-06-26T06:34:25;39.19;35.04;41.89;;
66747;Laerm;53658;50.742;10.864;2023-06-26T06:36:51;38.94;34.69;41.53;;
66747;Laerm;53658;50.742;10.864;2023-06-26T06:39:17;38.77;35.36;41.46;;
66747;Laerm;53658;50.742;10.864;2023-06-26T06:41:43;38.70;34.69;42.47;;
66747;Laerm;53658;50.742;10.864;2023-06-26T06:44:11;38.58;34.69;43.34;;
66747;Laerm;53658;50.742;10.864;2023-06-26T06:46:36;38.42;34.31;42.53;;
66747;Laerm;53658;50.742;10.864;2023-06-26T06:49:02;38.36;33.90;41.06;;
66747;Laerm;53658;50.742;10.864;2023-06-26T06:51:29;38.32;33.90;42.71;;
66747;Laerm;53658;50.742;10.864;2023-06-26T06:53:55;38.32;33.90;42.82;;
66747;Laerm;53658;50.742;10.864;2023-06-26T06:56:21;38.12;33.55;42.93;;
66747;Laerm;53658;50.742;10.864;2023-06-26T06:58:47;38.36;33.44;43.29;;
66747;Laerm;53658;50.742;10.864;2023-06-26T07:01:13;38.02;32.93;41.82;;
66747;Laerm;53658;50.742;10.864;2023-06-26T07:03:40;38.01;32.93;40.71;;
66747;Laerm;53658;50.742;10.864;2023-06-26T07:06:05;38.00;32.35;40.71;;
66747;Laerm;53658;50.742;10.864;2023-06-26T07:08:32;38.10;33.44;40.89;;
66747;Laerm;53658;50.742;10.864;2023-06-26T07:10:58;37.94;28.67;42.76;;
66747;Laerm;53658;50.742;10.864;2023-06-26T07:13:24;37.78;32.35;41.06;;
66747;Laerm;53658;50.742;10.864;2023-06-26T07:15:50;37.77;32.35;41.38;;
66747;Laerm;53658;50.742;10.864;2023-06-26T07:18:17;37.75;32.35;42.09;;
66747;Laerm;53658;50.742;10.864;2023-06-26T07:20:43;37.65;28.67;40.43;;
66747;Laerm;53658;50.742;10.864;2023-06-26T07:23:09;37.68;29.92;42.71;;
66747;Laerm;53658;50.742;10.864;2023-06-26T07:25:36;37.89;31.68;44.62;;
66747;Laerm;53658;50.742;10.864;2023-06-26T07:28:02;37.49;32.35;40.23;;
66747;Laerm;53658;50.742;10.864;2023-06-26T07:30:28;37.53;32.00;41.68;;
66747;Laerm;53658;50.742;10.864;2023-06-26T07:32:54;37.47;32.35;40.98;;
66747;Laerm;53658;50.742;10.864;2023-06-26T07:35:20;37.48;30.89;40.33;;
66747;Laerm;53658;50.742;10.864;2023-06-26T07:37:46;37.43;30.89;40.36;;
66747;Laerm;53658;50.742;10.864;2023-06-26T07:40:12;37.51;30.89;40.89;;
66747;Laerm;53658;50.742;10.864;2023-06-26T07:42:38;37.36;31.68;40.53;;
66747;Laerm;53658;50.742;10.864;2023-06-26T07:45:06;37.36;29.92;41.61;;
66747;Laerm;53658;50.742;10.864;2023-06-26T07:47:37;37.39;29.92;40.33;;
66747;Laerm;53658;50.742;10.864;2023-06-26T07:50:04;37.40;31.68;41.53;;
66747;Laerm;53658;50.742;10.864;2023-06-26T07:52:30;37.40;30.54;40.71;;
66747;Laerm;53658;50.742;10.864;2023-06-26T07:54:56;37.38;30.89;42.93;;
66747;Laerm;53658;50.742;10.864;2023-06-26T07:57:22;37.23;29.92;40.80;;
66747;Laerm;53658;50.742;10.864;2023-06-26T07:59:48;38.09;29.92;49.28;;
66747;Laerm;53658;50.742;10.864;2023-06-26T08:02:14;37.28;30.89;43.09;;
66747;Laerm;53658;50.742;10.864;2023-06-26T08:04:40;37.75;29.92;44.87;;
66747;Laerm;53658;50.742;10.864;2023-06-26T08:07:06;37.29;31.68;40.80;;
66747;Laerm;53658;50.742;10.864;2023-06-26T08:09:32;37.35;30.89;42.53;;
66747;Laerm;53658;50.742;10.864;2023-06-26T08:11:59;37.27;29.92;42.59;;
66747;Laerm;53658;50.742;10.864;2023-06-26T08:14:25;37.36;29.92;42.03;;
66747;Laerm;53658;50.742;10.864;2023-06-26T08:16:52;37.31;29.92;42.09;;
66747;Laerm;53658;50.742;10.864;2023-06-26T08:19:18;37.26;30.89;41.30;;
66747;Laerm;53658;50.742;10.864;2023-06-26T08:21:45;37.30;30.89;41.82;;
66747;Laerm;53658;50.742;10.864;2023-06-26T08:24:12;37.40;30.89;43.34;;
66747;Laerm;53658;50.742;10.864;2023-06-26T08:26:46;37.33;30.89;44.23;;
66747;Laerm;53658;50.742;10.864;2023-06-26T08:29:12;37.35;26.91;43.19;;
66747;Laerm;53658;50.742;10.864;2023-06-26T08:31:40;37.12;30.89;41.82;;
66747;Laerm;53658;50.742;10.864;2023-06-26T08:34:07;37.17;29.57;40.98;;
66747;Laerm;53658;50.742;10.864;2023-06-26T08:36:33;37.42;30.89;43.49;;
66747;Laerm;53658;50.742;10.864;2023-06-26T08:38:58;37.02;30.89;40.80;;
66747;Laerm;53658;50.742;10.864;2023-06-26T08:41:24;37.34;26.91;42.65;;
66747;Laerm;53658;50.742;10.864;2023-06-26T08:43:51;37.07;29.92;40.33;;
66747;Laerm;53658;50.742;10.864;2023-06-26T08:46:18;37.14;28.67;43.46;;
66747;Laerm;53658;50.742;10.864;2023-06-26T08:48:49;37.17;30.89;42.65;;
66747;Laerm;53658;50.742;10.864;2023-06-26T08:51:21;37.11;29.92;41.82;;
66747;Laerm;53658;50.742;10.864;2023-06-26T08:56:24;37.23;29.92;42.93;;
66747;Laerm;53658;50.742;10.864;2023-06-26T08:58:50;37.17;26.91;43.44;;
66747;Laerm;53658;50.742;10.864;2023-06-26T09:01:17;36.93;29.92;40.03;;
66747;Laerm;53658;50.742;10.864;2023-06-26T09:03:44;37.10;28.32;41.68;;
66747;Laerm;53658;50.742;10.864;2023-06-26T09:06:11;36.97;28.32;43.09;;
66747;Laerm;53658;50.742;10.864;2023-06-26T09:08:37;36.94;30.89;40.43;;
66747;Laerm;53658;50.742;10.864;2023-06-26T09:11:03;37.06;28.67;41.75;;
66747;Laerm;53658;50.742;10.864;2023-06-26T09:13:30;36.95;29.92;41.53;;
66747;Laerm;53658;50.742;10.864;2023-06-26T09:15:57;37.11;30.89;43.09;;
66747;Laerm;53658;50.742;10.864;2023-06-26T09:18:23;37.00;29.57;42.41;;
66747;Laerm;53658;50.742;10.864;2023-06-26T09:20:50;36.99;28.67;42.35;;
66747;Laerm;53658;50.742;10.864;2023-06-26T09:23:16;37.02;29.92;44.07;;
66747;Laerm;53658;50.742;10.864;2023-06-26T09:25:42;37.21;29.92;43.19;;
66747;Laerm;53658;50.742;10.864;2023-06-26T09:28:10;36.92;29.92;41.22;;
66747;Laerm;53658;50.742;10.864;2023-06-26T09:30:36;38.14;30.89;44.31;;
66747;Laerm;53658;50.742;10.864;2023-06-26T09:33:20;36.88;28.67;42.98;;
66747;Laerm;53658;50.742;10.864;2023-06-26T09:35:47;36.93;28.67;41.46;;
66747;Laerm;53658;50.742;10.864;2023-06-26T09:38:13;36.85;26.91;41.68;;
66747;Laerm;53658;50.742;10.864;2023-06-26T09:40:40;36.87;28.67;40.89;;
66747;Laerm;53658;50.742;10.864;2023-06-26T09:43:09;36.84;29.57;40.62;;
66747;Laerm;53658;50.742;10.864;2023-06-26T09:45:35;37.00;28.67;43.86;;
66747;Laerm;53658;50.742;10.864;2023-06-26T09:48:04;37.10;26.91;43.04;;
66747;Laerm;53658;50.742;10.864;2023-06-26T09:50:32;37.62;29.57;46.52;;
66747;Laerm;53658;50.742;10.864;2023-06-26T09:53:11;36.84;26.91;42.29;;
66747;Laerm;53658;50.742;10.864;2023-06-26T09:55:41;37.53;28.67;46.64;;
66747;Laerm;53658;50.742;10.864;2023-06-26T09:58:13;36.79;30.89;42.76;;
66747;Laerm;53658;50.742;10.864;2023-06-26T10:00:43;36.83;29.92;41.96;;
66747;Laerm;53658;50.742;10.864;2023-06-26T10:03:12;37.08;26.91;45.54;;
66747;Laerm;53658;50.742;10.864;2023-06-26T10:05:40;36.82;30.89;41.22;;
66747;Laerm;53658;50.742;10.864;2023-06-26T10:08:06;36.73;28.67;39.92;;
66747;Laerm;53658;50.742;10.864;2023-06-26T10:10:37;36.95;23.90;43.34;;
66747;Laerm;53658;50.742;10.864;2023-06-26T10:13:11;36.79;28.67;42.16;;
66747;Laerm;53658;50.742;10.864;2023-06-26T10:15:44;37.11;23.90;44.42;;
66747;Laerm;53658;50.742;10.864;2023-06-26T10:18:13;37.21;29.92;44.31;;
66747;Laerm;53658;50.742;10.864;2023-06-26T10:20:42;36.68;28.67;41.46;;
66747;Laerm;53658;50.742;10.864;2023-06-26T10:23:12;36.95;28.67;42.76;;
66747;Laerm;53658;50.742;10.864;2023-06-26T10:25:41;36.93;29.92;41.61;;
66747;Laerm;53658;50.742;10.864;2023-06-26T10:28:09;36.69;28.67;41.53;;
66747;Laerm;53658;50.742;10.864;2023-06-26T10:30:39;36.71;29.92;39.92;;
66747;Laerm;53658;50.742;10.864;2023-06-26T10:33:08;37.34;28.67;48.02;;
66747;Laerm;53658;50.742;10.864;2023-06-26T10:35:42;36.99;28.67;42.98;;
66747;Laerm;53658;50.742;10.864;2023-06-26T10:38:08;37.00;28.67;43.72;;
66747;Laerm;53658;50.742;10.864;2023-06-26T10:40:45;36.86;29.92;43.77;;
66747;Laerm;53658;50.742;10.864;2023-06-26T10:43:14;36.78;29.92;41.75;;
66747;Laerm;53658;50.742;10.864;2023-06-26T10:45:48;37.11;29.92;43.90;;
66747;Laerm;53658;50.742;10.864;2023-06-26T10:48:19;36.80;29.92;41.82;;
66747;Laerm;53658;50.742;10.864;2023-06-26T10:50:48;36.93;29.92;41.96;;
66747;Laerm;53658;50.742;10.864;2023-06-26T10:56:04;36.70;26.91;40.03;;
66747;Laerm;53658;50.742;10.864;2023-06-26T11:03:38;37.56;26.91;45.42;;
66747;Laerm;53658;50.742;10.864;2023-06-26T11:06:17;36.64;26.91;40.23;;
66747;Laerm;53658;50.742;10.864;2023-06-26T11:08:49;36.65;28.67;40.71;;
66747;Laerm;53658;50.742;10.864;2023-06-26T11:11:17;37.49;30.89;43.29;;
66747;Laerm;53658;50.742;10.864;2023-06-26T11:13:46;36.85;29.92;42.98;;
66747;Laerm;53658;50.742;10.864;2023-06-26T11:16:13;37.04;29.92;42.98;;
66747;Laerm;53658;50.742;10.864;2023-06-26T11:18:41;37.08;29.57;42.88;;
66747;Laerm;53658;50.742;10.864;2023-06-26T11:21:08;36.79;28.67;43.81;;
66747;Laerm;53658;50.742;10.864;2023-06-26T11:23:36;37.10;29.92;44.35;;
66747;Laerm;53658;50.742;10.864;2023-06-26T11:26:15;36.87;30.89;41.89;;
66747;Laerm;53658;50.742;10.864;2023-06-26T11:28:53;37.28;29.92;42.58;;
66747;Laerm;53658;50.742;10.864;2023-06-26T11:31:31;36.95;26.91;43.81;;
66747;Laerm;53658;50.742;10.864;2023-06-26T11:34:00;37.13;29.92;42.85;;
66747;Laerm;53658;50.742;10.864;2023-06-26T11:36:27;36.61;29.92;39.92;;
66747;Laerm;53658;50.742;10.864;2023-06-26T11:38:57;36.60;28.67;40.23;;
66747;Laerm;53658;50.742;10.864;2023-06-26T11:41:26;37.12;29.92;43.77;;
66747;Laerm;53658;50.742;10.864;2023-06-26T11:43:52;37.31;28.67;44.38;;
66747;Laerm;53658;50.742;10.864;2023-06-26T11:46:21;36.72;26.91;41.14;;
66747;Laerm;53658;50.742;10.864;2023-06-26T11:48:48;36.74;28.67;42.71;;
66747;Laerm;53658;50.742;10.864;2023-06-26T11:51:15;36.69;29.92;39.92;;
66747;Laerm;53658;50.742;10.864;2023-06-26T11:53:43;36.95;28.67;42.65;;
66747;Laerm;53658;50.742;10.864;2023-06-26T11:56:11;37.04;23.90;43.63;;
66747;Laerm;53658;50.742;10.864;2023-06-26T12:01:41;36.83;28.67;42.95;;
66747;Laerm;53658;50.742;10.864;2023-06-26T12:04:11;38.02;5.00;51.21;;
66747;Laerm;53658;50.742;10.864;2023-06-26T12:06:46;37.68;26.91;44.43;;
66747;Laerm;53658;50.742;10.864;2023-06-26T12:09:13;38.43;29.92;47.96;;
66747;Laerm;53658;50.742;10.864;2023-06-26T12:11:43;37.80;26.91;46.18;;
66747;Laerm;53658;50.742;10.864;2023-06-26T12:14:11;36.74;29.92;41.22;;
66747;Laerm;53658;50.742;10.864;2023-06-26T12:16:37;36.65;29.92;40.23;;
66747;Laerm;53658;50.742;10.864;2023-06-26T12:19:06;36.67;26.91;39.92;;
66747;Laerm;53658;50.742;10.864;2023-06-26T12:24:20;36.81;26.91;42.03;;
66747;Laerm;53658;50.742;10.864;2023-06-26T12:26:51;36.76;29.92;40.71;;
66747;Laerm;53658;50.742;10.864;2023-06-26T12:29:20;38.37;29.92;50.17;;
66747;Laerm;53658;50.742;10.864;2023-06-26T12:31:52;36.92;28.67;44.83;;
66747;Laerm;53658;50.742;10.864;2023-06-26T12:34:25;36.87;29.92;42.29;;
66747;Laerm;53658;50.742;10.864;2023-06-26T12:36:51;38.38;29.92;50.34;;
66747;Laerm;53658;50.742;10.864;2023-06-26T12:39:19;36.80;29.92;41.06;;
66747;Laerm;53658;50.742;10.864;2023-06-26T12:41:54;36.90;29.92;41.61;;
66747;Laerm;53658;50.742;10.864;2023-06-26T12:44:30;37.20;29.92;44.03;;
66747;Laerm;53658;50.742;10.864;2023-06-26T12:46:59;37.13;28.67;42.76;;
66747;Laerm;53658;50.742;10.864;2023-06-26T12:49:38;37.08;30.89;43.90;;
66747;Laerm;53658;50.742;10.864;2023-06-26T12:52:07;36.86;28.67;42.03;;
66747;Laerm;53658;50.742;10.864;2023-06-26T12:54:35;37.58;29.92;45.07;;
66747;Laerm;53658;50.742;10.864;2023-06-26T12:57:01;36.75;28.67;41.82;;
66747;Laerm;53658;50.742;10.864;2023-06-26T12:59:31;37.10;28.67;42.59;;
66747;Laerm;53658;50.742;10.864;2023-06-26T13:02:00;36.72;29.92;40.23;;
66747;Laerm;53658;50.742;10.864;2023-06-26T13:04:26;37.70;29.92;50.31;;
66747;Laerm;53658;50.742;10.864;2023-06-26T13:06:52;37.47;29.92;47.61;;
66747;Laerm;53658;50.742;10.864;2023-06-26T13:09:23;37.84;29.92;51.13;;
66747;Laerm;53658;50.742;10.864;2023-06-26T13:11:53;37.17;29.92;43.29;;
66747;Laerm;53658;50.742;10.864;2023-06-26T13:14:21;37.06;29.92;43.90;;
66747;Laerm;53658;50.742;10.864;2023-06-26T13:16:47;38.54;29.92;46.97;;
66747;Laerm;53658;50.742;10.864;2023-06-26T13:19:13;38.03;29.92;45.33;;
66747;Laerm;53658;50.742;10.864;2023-06-26T13:21:39;37.26;30.89;43.49;;
66747;Laerm;53658;50.742;10.864;2023-06-26T13:24:05;36.99;29.57;42.35;;
66747;Laerm;53658;50.742;10.864;2023-06-26T13:26:31;37.01;29.92;43.51;;
66747;Laerm;53658;50.742;10.864;2023-06-26T13:28:58;37.57;29.92;48.98;;
66747;Laerm;53658;50.742;10.864;2023-06-26T13:31:24;36.83;29.92;42.35;;
66747;Laerm;53658;50.742;10.864;2023-06-26T13:33:50;37.10;29.92;45.39;;
66747;Laerm;53658;50.742;10.864;2023-06-26T13:36:19;38.60;30.89;47.18;;
66747;Laerm;53658;50.742;10.864;2023-06-26T13:38:45;36.86;29.92;41.06;;
66747;Laerm;53658;50.742;10.864;2023-06-26T13:41:11;36.75;30.89;41.30;;
66747;Laerm;53658;50.742;10.864;2023-06-26T13:43:37;36.90;30.89;42.65;;
66747;Laerm;53658;50.742;10.864;2023-06-26T13:46:03;36.83;28.67;40.80;;
66747;Laerm;53658;50.742;10.864;2023-06-26T13:48:29;37.83;30.89;47.96;;
66747;Laerm;53658;50.742;10.864;2023-06-26T13:50:55;38.12;29.92;47.76;;
66747;Laerm;53658;50.742;10.864;2023-06-26T13:53:22;38.10;31.68;44.80;;
66747;Laerm;53658;50.742;10.864;2023-06-26T13:55:48;37.80;32.35;42.93;;
66747;Laerm;53658;50.742;10.864;2023-06-26T13:58:14;38.94;32.93;51.41;;
66747;Laerm;53658;50.742;10.864;2023-06-26T14:00:41;39.87;35.04;55.31;;
66747;Laerm;53658;50.742;10.864;2023-06-26T14:03:13;39.08;35.66;42.03;;